Terminal Aerodrome Forecast
Issued by NWS Quad Cities IA IL

Home | Current Version | Previous Version | Text Only | Print | Product List | Glossary On
Versions: 1 2 3 4 5 6 7 8 9 10 11 12 13 14 15 16 17 18 19
000
FTUS43 KDVN 291900 CCA
TAFDBQ
TAF COR
KDBQ 291957Z 2920/3018 24013G20KT P6SM SCT025 OVC035
     FM292100 29021G33KT P6SM SCT030 SCT050
     FM300100 29014KT P6SM SCT030
     FM300400 27009KT P6SM SKC=

USA.gov is the U.S. government's official web portal to all federal, state and local government web resources and services.